sensor_id;sensor_type;location;lat;lon;timestamp;temperature;humidity
38325;DHT22;24126;52.672;13.622;2023-05-14T00:01:27;18.60;49.80
38325;DHT22;24126;52.672;13.622;2023-05-14T00:03:54;18.60;49.80
38325;DHT22;24126;52.672;13.622;2023-05-14T00:06:21;18.60;49.90
38325;DHT22;24126;52.672;13.622;2023-05-14T00:08:48;18.50;49.90
38325;DHT22;24126;52.672;13.622;2023-05-14T00:11:15;18.50;49.90
38325;DHT22;24126;52.672;13.622;2023-05-14T00:13:42;18.50;50.10
38325;DHT22;24126;52.672;13.622;2023-05-14T00:16:10;18.50;50.20
38325;DHT22;24126;52.672;13.622;2023-05-14T00:18:37;18.50;50.10
38325;DHT22;24126;52.672;13.622;2023-05-14T00:21:04;18.40;50.10
38325;DHT22;24126;52.672;13.622;2023-05-14T00:23:31;18.40;50.00
38325;DHT22;24126;52.672;13.622;2023-05-14T00:25:58;18.40;50.10
38325;DHT22;24126;52.672;13.622;2023-05-14T00:28:25;18.40;50.10
38325;DHT22;24126;52.672;13.622;2023-05-14T00:30:53;18.40;50.30
38325;DHT22;24126;52.672;13.622;2023-05-14T00:33:20;18.40;50.30
38325;DHT22;24126;52.672;13.622;2023-05-14T00:35:47;18.40;50.30
38325;DHT22;24126;52.672;13.622;2023-05-14T00:38:14;18.30;50.40
38325;DHT22;24126;52.672;13.622;2023-05-14T00:40:44;18.40;50.40
38325;DHT22;24126;52.672;13.622;2023-05-14T00:43:17;18.30;50.30
38325;DHT22;24126;52.672;13.622;2023-05-14T00:45:44;18.30;50.30
38325;DHT22;24126;52.672;13.622;2023-05-14T00:48:11;18.30;50.30
38325;DHT22;24126;52.672;13.622;2023-05-14T00:50:39;18.20;50.20
38325;DHT22;24126;52.672;13.622;2023-05-14T00:53:06;18.20;50.40
38325;DHT22;24126;52.672;13.622;2023-05-14T00:55:36;18.20;50.20
38325;DHT22;24126;52.672;13.622;2023-05-14T00:58:05;18.20;50.30
38325;DHT22;24126;52.672;13.622;2023-05-14T01:00:33;18.20;50.30
38325;DHT22;24126;52.672;13.622;2023-05-14T01:03:01;18.20;50.40
38325;DHT22;24126;52.672;13.622;2023-05-14T01:05:32;18.20;50.30
38325;DHT22;24126;52.672;13.622;2023-05-14T01:08:03;18.20;50.40
38325;DHT22;24126;52.672;13.622;2023-05-14T01:10:56;18.10;50.30
38325;DHT22;24126;52.672;13.622;2023-05-14T01:13:41;18.00;50.40
38325;DHT22;24126;52.672;13.622;2023-05-14T01:16:11;18.00;50.60
38325;DHT22;24126;52.672;13.622;2023-05-14T01:18:39;18.00;50.30
38325;DHT22;24126;52.672;13.622;2023-05-14T01:23:56;17.90;50.50
38325;DHT22;24126;52.672;13.622;2023-05-14T01:26:23;17.90;50.20
38325;DHT22;24126;52.672;13.622;2023-05-14T01:28:50;17.90;50.30
38325;DHT22;24126;52.672;13.622;2023-05-14T01:31:18;17.80;50.40
38325;DHT22;24126;52.672;13.622;2023-05-14T01:33:49;17.80;50.40
38325;DHT22;24126;52.672;13.622;2023-05-14T01:36:17;17.80;50.30
38325;DHT22;24126;52.672;13.622;2023-05-14T01:38:44;17.80;50.30
38325;DHT22;24126;52.672;13.622;2023-05-14T01:41:13;17.70;50.20
38325;DHT22;24126;52.672;13.622;2023-05-14T01:43:40;17.70;50.30
38325;DHT22;24126;52.672;13.622;2023-05-14T01:46:07;17.70;50.30
38325;DHT22;24126;52.672;13.622;2023-05-14T01:48:35;17.70;50.40
38325;DHT22;24126;52.672;13.622;2023-05-14T01:51:02;17.60;50.10
38325;DHT22;24126;52.672;13.622;2023-05-14T01:53:30;17.60;50.30
38325;DHT22;24126;52.672;13.622;2023-05-14T01:55:59;17.60;50.30
38325;DHT22;24126;52.672;13.622;2023-05-14T01:58:27;17.50;50.50
38325;DHT22;24126;52.672;13.622;2023-05-14T02:00:54;17.50;50.50
38325;DHT22;24126;52.672;13.622;2023-05-14T02:03:21;17.40;50.50
38325;DHT22;24126;52.672;13.622;2023-05-14T02:05:48;17.40;50.40
38325;DHT22;24126;52.672;13.622;2023-05-14T02:08:15;17.40;50.20
38325;DHT22;24126;52.672;13.622;2023-05-14T02:10:42;17.40;50.20
38325;DHT22;24126;52.672;13.622;2023-05-14T02:13:10;17.40;50.20
38325;DHT22;24126;52.672;13.622;2023-05-14T02:15:37;17.30;50.10
38325;DHT22;24126;52.672;13.622;2023-05-14T02:18:04;17.40;50.30
38325;DHT22;24126;52.672;13.622;2023-05-14T02:20:31;17.40;50.40
38325;DHT22;24126;52.672;13.622;2023-05-14T02:22:58;17.40;50.40
38325;DHT22;24126;52.672;13.622;2023-05-14T02:25:25;17.40;50.80
38325;DHT22;24126;52.672;13.622;2023-05-14T02:27:52;17.40;50.90
38325;DHT22;24126;52.672;13.622;2023-05-14T02:30:20;17.40;50.80
38325;DHT22;24126;52.672;13.622;2023-05-14T02:32:47;17.40;51.10
38325;DHT22;24126;52.672;13.622;2023-05-14T02:35:14;17.40;51.30
38325;DHT22;24126;52.672;13.622;2023-05-14T02:37:41;17.40;51.60
38325;DHT22;24126;52.672;13.622;2023-05-14T02:40:08;17.30;51.50
38325;DHT22;24126;52.672;13.622;2023-05-14T02:42:35;17.30;51.50
38325;DHT22;24126;52.672;13.622;2023-05-14T02:45:02;17.30;51.40
38325;DHT22;24126;52.672;13.622;2023-05-14T02:47:31;17.30;51.60
38325;DHT22;24126;52.672;13.622;2023-05-14T02:49:58;17.30;51.80
38325;DHT22;24126;52.672;13.622;2023-05-14T02:52:25;17.30;52.00
38325;DHT22;24126;52.672;13.622;2023-05-14T02:54:53;17.30;51.40
38325;DHT22;24126;52.672;13.622;2023-05-14T02:57:20;17.30;51.80
38325;DHT22;24126;52.672;13.622;2023-05-14T02:59:47;17.30;51.70
38325;DHT22;24126;52.672;13.622;2023-05-14T03:02:14;17.30;51.80
38325;DHT22;24126;52.672;13.622;2023-05-14T03:04:41;17.30;51.60
38325;DHT22;24126;52.672;13.622;2023-05-14T03:07:08;17.40;51.50
38325;DHT22;24126;52.672;13.622;2023-05-14T03:09:35;17.40;51.80
38325;DHT22;24126;52.672;13.622;2023-05-14T03:12:02;17.40;51.10
38325;DHT22;24126;52.672;13.622;2023-05-14T03:14:29;17.40;50.70
38325;DHT22;24126;52.672;13.622;2023-05-14T03:16:56;17.40;51.80
38325;DHT22;24126;52.672;13.622;2023-05-14T03:19:23;17.40;50.10
38325;DHT22;24126;52.672;13.622;2023-05-14T03:21:50;17.40;50.80
38325;DHT22;24126;52.672;13.622;2023-05-14T03:24:17;17.40;50.90
38325;DHT22;24126;52.672;13.622;2023-05-14T03:26:44;17.50;50.60
38325;DHT22;24126;52.672;13.622;2023-05-14T03:29:12;17.50;50.40
38325;DHT22;24126;52.672;13.622;2023-05-14T03:31:43;17.40;50.40
38325;DHT22;24126;52.672;13.622;2023-05-14T03:34:10;17.50;50.70
38325;DHT22;24126;52.672;13.622;2023-05-14T03:36:37;17.50;50.80
38325;DHT22;24126;52.672;13.622;2023-05-14T03:39:04;17.50;50.70
38325;DHT22;24126;52.672;13.622;2023-05-14T03:41:32;17.50;50.30
38325;DHT22;24126;52.672;13.622;2023-05-14T03:43:59;17.50;50.70
38325;DHT22;24126;52.672;13.622;2023-05-14T03:46:26;17.50;49.90
38325;DHT22;24126;52.672;13.622;2023-05-14T03:48:55;17.50;50.00
38325;DHT22;24126;52.672;13.622;2023-05-14T03:51:22;17.50;49.50
38325;DHT22;24126;52.672;13.622;2023-05-14T03:53:49;17.50;49.50
38325;DHT22;24126;52.672;13.622;2023-05-14T03:56:16;17.60;49.50
38325;DHT22;24126;52.672;13.622;2023-05-14T03:58:43;17.60;49.70
38325;DHT22;24126;52.672;13.622;2023-05-14T04:01:11;17.60;49.30
38325;DHT22;24126;52.672;13.622;2023-05-14T04:03:40;17.60;49.20
38325;DHT22;24126;52.672;13.622;2023-05-14T04:06:07;17.70;49.30
38325;DHT22;24126;52.672;13.622;2023-05-14T04:08:34;17.70;49.80
38325;DHT22;24126;52.672;13.622;2023-05-14T04:11:01;17.80;49.40
38325;DHT22;24126;52.672;13.622;2023-05-14T04:13:28;17.80;49.20
38325;DHT22;24126;52.672;13.622;2023-05-14T04:15:55;17.80;48.80
38325;DHT22;24126;52.672;13.622;2023-05-14T04:18:24;17.80;49.20
38325;DHT22;24126;52.672;13.622;2023-05-14T04:20:51;17.90;49.10
38325;DHT22;24126;52.672;13.622;2023-05-14T04:23:18;17.90;49.40
38325;DHT22;24126;52.672;13.622;2023-05-14T04:25:45;17.90;49.20
38325;DHT22;24126;52.672;13.622;2023-05-14T04:28:12;17.90;49.10
38325;DHT22;24126;52.672;13.622;2023-05-14T04:30:40;18.00;49.30
38325;DHT22;24126;52.672;13.622;2023-05-14T04:33:07;18.00;49.60
38325;DHT22;24126;52.672;13.622;2023-05-14T04:35:35;18.00;49.10
38325;DHT22;24126;52.672;13.622;2023-05-14T04:38:02;18.00;49.60
38325;DHT22;24126;52.672;13.622;2023-05-14T04:40:29;18.10;50.10
38325;DHT22;24126;52.672;13.622;2023-05-14T04:42:56;18.10;50.30
38325;DHT22;24126;52.672;13.622;2023-05-14T04:45:23;18.10;50.50
38325;DHT22;24126;52.672;13.622;2023-05-14T04:47:51;18.20;50.40
38325;DHT22;24126;52.672;13.622;2023-05-14T04:50:18;18.30;50.90
38325;DHT22;24126;52.672;13.622;2023-05-14T04:52:45;18.50;50.90
38325;DHT22;24126;52.672;13.622;2023-05-14T04:55:12;18.70;50.20
38325;DHT22;24126;52.672;13.622;2023-05-14T04:57:39;18.90;49.40
38325;DHT22;24126;52.672;13.622;2023-05-14T05:00:06;19.10;49.20
38325;DHT22;24126;52.672;13.622;2023-05-14T05:02:34;20.10;47.90
38325;DHT22;24126;52.672;13.622;2023-05-14T05:05:02;21.80;44.20
38325;DHT22;24126;52.672;13.622;2023-05-14T05:07:29;23.30;41.50
38325;DHT22;24126;52.672;13.622;2023-05-14T05:09:56;24.40;39.00
38325;DHT22;24126;52.672;13.622;2023-05-14T05:12:24;25.10;37.30
38325;DHT22;24126;52.672;13.622;2023-05-14T05:14:57;25.50;36.50
38325;DHT22;24126;52.672;13.622;2023-05-14T05:17:24;25.50;36.40
38325;DHT22;24126;52.672;13.622;2023-05-14T05:19:51;25.30;37.00
38325;DHT22;24126;52.672;13.622;2023-05-14T05:22:18;24.90;36.80
38325;DHT22;24126;52.672;13.622;2023-05-14T05:24:46;24.50;37.90
38325;DHT22;24126;52.672;13.622;2023-05-14T05:27:13;24.20;39.40
38325;DHT22;24126;52.672;13.622;2023-05-14T05:29:40;23.80;40.00
38325;DHT22;24126;52.672;13.622;2023-05-14T05:32:07;23.50;40.50
38325;DHT22;24126;52.672;13.622;2023-05-14T05:34:34;23.20;41.30
38325;DHT22;24126;52.672;13.622;2023-05-14T05:37:01;22.80;42.10
38325;DHT22;24126;52.672;13.622;2023-05-14T05:39:30;22.40;42.70
38325;DHT22;24126;52.672;13.622;2023-05-14T05:41:59;22.10;43.60
38325;DHT22;24126;52.672;13.622;2023-05-14T05:44:27;21.80;44.00
38325;DHT22;24126;52.672;13.622;2023-05-14T05:46:54;21.60;44.40
38325;DHT22;24126;52.672;13.622;2023-05-14T05:49:22;21.50;45.70
38325;DHT22;24126;52.672;13.622;2023-05-14T05:51:49;21.30;45.90
38325;DHT22;24126;52.672;13.622;2023-05-14T05:54:16;21.30;45.70
38325;DHT22;24126;52.672;13.622;2023-05-14T05:56:43;21.20;46.00
38325;DHT22;24126;52.672;13.622;2023-05-14T05:59:10;21.20;46.40
38325;DHT22;24126;52.672;13.622;2023-05-14T06:01:37;21.20;46.40
38325;DHT22;24126;52.672;13.622;2023-05-14T06:04:05;21.20;46.10
38325;DHT22;24126;52.672;13.622;2023-05-14T06:06:32;21.10;46.30
38325;DHT22;24126;52.672;13.622;2023-05-14T06:08:59;21.20;46.00
38325;DHT22;24126;52.672;13.622;2023-05-14T06:11:26;21.20;45.90
38325;DHT22;24126;52.672;13.622;2023-05-14T06:13:54;21.20;45.90
38325;DHT22;24126;52.672;13.622;2023-05-14T06:16:21;21.20;45.60
38325;DHT22;24126;52.672;13.622;2023-05-14T06:18:48;21.20;45.80
38325;DHT22;24126;52.672;13.622;2023-05-14T06:21:17;21.20;45.50
38325;DHT22;24126;52.672;13.622;2023-05-14T06:23:44;21.20;45.60
38325;DHT22;24126;52.672;13.622;2023-05-14T06:26:11;21.10;45.50
38325;DHT22;24126;52.672;13.622;2023-05-14T06:28:38;21.10;45.90
38325;DHT22;24126;52.672;13.622;2023-05-14T06:31:05;21.10;46.10
38325;DHT22;24126;52.672;13.622;2023-05-14T06:33:32;21.10;46.30
38325;DHT22;24126;52.672;13.622;2023-05-14T06:36:02;21.20;46.20
38325;DHT22;24126;52.672;13.622;2023-05-14T06:38:29;21.20;46.50
38325;DHT22;24126;52.672;13.622;2023-05-14T06:40:56;21.30;45.80
38325;DHT22;24126;52.672;13.622;2023-05-14T06:43:23;21.30;45.70
38325;DHT22;24126;52.672;13.622;2023-05-14T06:45:50;21.30;45.50
38325;DHT22;24126;52.672;13.622;2023-05-14T06:48:17;21.30;45.30
38325;DHT22;24126;52.672;13.622;2023-05-14T06:50:45;21.30;45.40
38325;DHT22;24126;52.672;13.622;2023-05-14T06:53:12;21.30;45.20
38325;DHT22;24126;52.672;13.622;2023-05-14T06:55:40;21.40;45.10
38325;DHT22;24126;52.672;13.622;2023-05-14T06:58:07;21.40;44.70
38325;DHT22;24126;52.672;13.622;2023-05-14T07:00:34;21.40;45.10
38325;DHT22;24126;52.672;13.622;2023-05-14T07:03:01;21.40;44.50
38325;DHT22;24126;52.672;13.622;2023-05-14T07:05:28;21.40;44.90
38325;DHT22;24126;52.672;13.622;2023-05-14T07:07:55;21.50;44.80
38325;DHT22;24126;52.672;13.622;2023-05-14T07:10:22;21.40;44.80
38325;DHT22;24126;52.672;13.622;2023-05-14T07:12:49;21.50;44.90
38325;DHT22;24126;52.672;13.622;2023-05-14T07:15:16;21.50;44.50
38325;DHT22;24126;52.672;13.622;2023-05-14T07:17:43;21.60;44.10
38325;DHT22;24126;52.672;13.622;2023-05-14T07:20:10;21.60;44.00
38325;DHT22;24126;52.672;13.622;2023-05-14T07:22:38;21.60;43.90
38325;DHT22;24126;52.672;13.622;2023-05-14T07:25:05;21.60;43.90
38325;DHT22;24126;52.672;13.622;2023-05-14T07:27:32;21.60;44.00
38325;DHT22;24126;52.672;13.622;2023-05-14T07:29:59;21.60;44.00
38325;DHT22;24126;52.672;13.622;2023-05-14T07:32:27;21.60;43.30
38325;DHT22;24126;52.672;13.622;2023-05-14T07:34:55;21.60;43.30
38325;DHT22;24126;52.672;13.622;2023-05-14T07:37:22;21.70;43.90
38325;DHT22;24126;52.672;13.622;2023-05-14T07:39:51;21.80;43.30
38325;DHT22;24126;52.672;13.622;2023-05-14T07:42:18;21.80;43.30
38325;DHT22;24126;52.672;13.622;2023-05-14T07:44:45;21.80;43.10
38325;DHT22;24126;52.672;13.622;2023-05-14T07:47:12;21.80;42.80
38325;DHT22;24126;52.672;13.622;2023-05-14T07:49:39;21.90;42.90
38325;DHT22;24126;52.672;13.622;2023-05-14T07:52:06;21.90;42.60
38325;DHT22;24126;52.672;13.622;2023-05-14T07:54:33;22.00;42.40
38325;DHT22;24126;52.672;13.622;2023-05-14T07:57:00;22.00;42.70
38325;DHT22;24126;52.672;13.622;2023-05-14T07:59:27;22.00;42.60
38325;DHT22;24126;52.672;13.622;2023-05-14T08:01:54;22.00;42.90
38325;DHT22;24126;52.672;13.622;2023-05-14T08:04:22;22.10;42.70
38325;DHT22;24126;52.672;13.622;2023-05-14T08:06:50;22.10;42.30
38325;DHT22;24126;52.672;13.622;2023-05-14T08:09:17;22.20;42.40
38325;DHT22;24126;52.672;13.622;2023-05-14T08:11:44;22.20;42.10
38325;DHT22;24126;52.672;13.622;2023-05-14T08:14:11;22.30;42.50
38325;DHT22;24126;52.672;13.622;2023-05-14T08:16:38;22.30;42.50
38325;DHT22;24126;52.672;13.622;2023-05-14T08:19:05;22.40;42.20
38325;DHT22;24126;52.672;13.622;2023-05-14T08:21:32;22.50;42.10
38325;DHT22;24126;52.672;13.622;2023-05-14T08:23:59;22.50;41.70
38325;DHT22;24126;52.672;13.622;2023-05-14T08:26:26;22.60;41.00
38325;DHT22;24126;52.672;13.622;2023-05-14T08:28:54;22.60;41.30
38325;DHT22;24126;52.672;13.622;2023-05-14T08:31:21;22.70;41.30
38325;DHT22;24126;52.672;13.622;2023-05-14T08:33:49;22.70;40.40
38325;DHT22;24126;52.672;13.622;2023-05-14T08:36:16;22.80;40.70
38325;DHT22;24126;52.672;13.622;2023-05-14T08:38:43;22.80;40.30
38325;DHT22;24126;52.672;13.622;2023-05-14T08:41:10;22.90;40.10
38325;DHT22;24126;52.672;13.622;2023-05-14T08:46:14;23.20;39.90
38325;DHT22;24126;52.672;13.622;2023-05-14T08:48:43;23.20;39.20
38325;DHT22;24126;52.672;13.622;2023-05-14T08:51:13;23.30;39.50
38325;DHT22;24126;52.672;13.622;2023-05-14T08:53:40;23.40;38.80
38325;DHT22;24126;52.672;13.622;2023-05-14T08:56:08;23.50;38.70
38325;DHT22;24126;52.672;13.622;2023-05-14T08:58:37;23.60;38.70
38325;DHT22;24126;52.672;13.622;2023-05-14T09:01:04;23.60;38.50
38325;DHT22;24126;52.672;13.622;2023-05-14T09:03:31;23.80;38.60
38325;DHT22;24126;52.672;13.622;2023-05-14T09:05:59;23.80;38.30
38325;DHT22;24126;52.672;13.622;2023-05-14T09:08:26;23.90;38.20
38325;DHT22;24126;52.672;13.622;2023-05-14T09:10:53;24.20;38.10
38325;DHT22;24126;52.672;13.622;2023-05-14T09:13:20;24.30;38.10
38325;DHT22;24126;52.672;13.622;2023-05-14T09:15:47;24.50;37.60
38325;DHT22;24126;52.672;13.622;2023-05-14T09:18:16;24.60;36.80
38325;DHT22;24126;52.672;13.622;2023-05-14T09:20:43;24.80;36.90
38325;DHT22;24126;52.672;13.622;2023-05-14T09:23:10;25.10;36.00
38325;DHT22;24126;52.672;13.622;2023-05-14T09:25:37;25.20;36.00
38325;DHT22;24126;52.672;13.622;2023-05-14T09:28:05;25.30;35.40
38325;DHT22;24126;52.672;13.622;2023-05-14T09:30:34;25.40;35.80
38325;DHT22;24126;52.672;13.622;2023-05-14T09:33:01;25.50;35.00
38325;DHT22;24126;52.672;13.622;2023-05-14T09:35:29;25.80;35.60
38325;DHT22;24126;52.672;13.622;2023-05-14T09:37:57;26.10;35.40
38325;DHT22;24126;52.672;13.622;2023-05-14T09:40:24;26.60;35.50
38325;DHT22;24126;52.672;13.622;2023-05-14T09:42:51;26.90;35.00
38325;DHT22;24126;52.672;13.622;2023-05-14T09:45:18;27.30;35.00
38325;DHT22;24126;52.672;13.622;2023-05-14T09:47:45;27.70;33.30
38325;DHT22;24126;52.672;13.622;2023-05-14T09:50:12;27.80;33.60
38325;DHT22;24126;52.672;13.622;2023-05-14T09:52:39;27.90;33.20
38325;DHT22;24126;52.672;13.622;2023-05-14T09:55:07;28.00;32.30
38325;DHT22;24126;52.672;13.622;2023-05-14T09:57:34;27.80;31.70
38325;DHT22;24126;52.672;13.622;2023-05-14T10:00:02;27.90;31.60
38325;DHT22;24126;52.672;13.622;2023-05-14T10:02:37;28.00;31.50
38325;DHT22;24126;52.672;13.622;2023-05-14T10:05:05;28.20;31.20
38325;DHT22;24126;52.672;13.622;2023-05-14T10:07:43;28.30;30.90
38325;DHT22;24126;52.672;13.622;2023-05-14T10:10:12;28.20;30.40
38325;DHT22;24126;52.672;13.622;2023-05-14T10:12:41;28.10;30.60
38325;DHT22;24126;52.672;13.622;2023-05-14T10:15:15;27.90;30.40
38325;DHT22;24126;52.672;13.622;2023-05-14T10:17:44;27.70;30.40
38325;DHT22;24126;52.672;13.622;2023-05-14T10:20:14;27.40;30.40
38325;DHT22;24126;52.672;13.622;2023-05-14T10:22:41;27.20;30.30
38325;DHT22;24126;52.672;13.622;2023-05-14T10:25:08;27.00;30.40
38325;DHT22;24126;52.672;13.622;2023-05-14T10:27:36;26.90;30.60
38325;DHT22;24126;52.672;13.622;2023-05-14T10:30:04;26.80;31.50
38325;DHT22;24126;52.672;13.622;2023-05-14T10:32:31;26.90;31.90
38325;DHT22;24126;52.672;13.622;2023-05-14T10:35:05;27.00;31.40
38325;DHT22;24126;52.672;13.622;2023-05-14T10:37:41;26.90;30.60
38325;DHT22;24126;52.672;13.622;2023-05-14T10:40:09;26.90;30.40
38325;DHT22;24126;52.672;13.622;2023-05-14T10:42:38;26.80;30.30
38325;DHT22;24126;52.672;13.622;2023-05-14T10:45:06;26.80;30.30
38325;DHT22;24126;52.672;13.622;2023-05-14T10:47:34;26.80;30.70
38325;DHT22;24126;52.672;13.622;2023-05-14T10:50:02;26.80;30.90
38325;DHT22;24126;52.672;13.622;2023-05-14T10:52:29;27.10;30.40
38325;DHT22;24126;52.672;13.622;2023-05-14T10:54:57;27.30;30.00
38325;DHT22;24126;52.672;13.622;2023-05-14T10:57:28;27.70;30.00
38325;DHT22;24126;52.672;13.622;2023-05-14T10:59:57;27.90;29.80
38325;DHT22;24126;52.672;13.622;2023-05-14T11:02:25;28.10;29.60
38325;DHT22;24126;52.672;13.622;2023-05-14T11:07:23;28.30;29.00
38325;DHT22;24126;52.672;13.622;2023-05-14T11:09:50;28.10;29.10
38325;DHT22;24126;52.672;13.622;2023-05-14T11:12:18;27.90;29.50
38325;DHT22;24126;52.672;13.622;2023-05-14T11:14:45;27.80;29.60
38325;DHT22;24126;52.672;13.622;2023-05-14T11:17:12;27.70;29.50
38325;DHT22;24126;52.672;13.622;2023-05-14T11:19:41;27.60;29.90
38325;DHT22;24126;52.672;13.622;2023-05-14T11:22:09;27.50;29.90
38325;DHT22;24126;52.672;13.622;2023-05-14T11:24:38;27.40;30.00
38325;DHT22;24126;52.672;13.622;2023-05-14T11:27:08;27.40;30.00
38325;DHT22;24126;52.672;13.622;2023-05-14T11:29:36;27.30;29.90
38325;DHT22;24126;52.672;13.622;2023-05-14T11:32:04;27.30;30.20
38325;DHT22;24126;52.672;13.622;2023-05-14T11:34:31;27.30;30.00
38325;DHT22;24126;52.672;13.622;2023-05-14T11:37:01;27.20;30.40
38325;DHT22;24126;52.672;13.622;2023-05-14T11:39:29;27.20;30.70
38325;DHT22;24126;52.672;13.622;2023-05-14T11:41:57;27.20;30.80
38325;DHT22;24126;52.672;13.622;2023-05-14T11:44:24;27.20;30.70
38325;DHT22;24126;52.672;13.622;2023-05-14T11:46:55;27.20;30.80
38325;DHT22;24126;52.672;13.622;2023-05-14T11:49:22;27.30;30.80
38325;DHT22;24126;52.672;13.622;2023-05-14T11:51:55;27.50;30.90
38325;DHT22;24126;52.672;13.622;2023-05-14T11:54:29;27.50;30.00
38325;DHT22;24126;52.672;13.622;2023-05-14T11:56:56;27.40;29.90
38325;DHT22;24126;52.672;13.622;2023-05-14T11:59:24;27.20;29.90
38325;DHT22;24126;52.672;13.622;2023-05-14T12:01:51;27.10;30.10
38325;DHT22;24126;52.672;13.622;2023-05-14T12:04:19;26.90;30.20
38325;DHT22;24126;52.672;13.622;2023-05-14T12:06:47;26.80;30.00
38325;DHT22;24126;52.672;13.622;2023-05-14T12:09:15;26.70;30.30
38325;DHT22;24126;52.672;13.622;2023-05-14T12:11:44;26.70;30.60
38325;DHT22;24126;52.672;13.622;2023-05-14T12:14:13;26.70;30.70
38325;DHT22;24126;52.672;13.622;2023-05-14T12:16:42;26.70;30.90
38325;DHT22;24126;52.672;13.622;2023-05-14T12:19:09;26.70;31.50
38325;DHT22;24126;52.672;13.622;2023-05-14T12:21:37;26.80;31.10
38325;DHT22;24126;52.672;13.622;2023-05-14T12:24:04;26.80;31.20
38325;DHT22;24126;52.672;13.622;2023-05-14T12:26:34;26.70;32.20
38325;DHT22;24126;52.672;13.622;2023-05-14T12:29:03;26.70;31.00
38325;DHT22;24126;52.672;13.622;2023-05-14T12:31:32;26.60;32.00
38325;DHT22;24126;52.672;13.622;2023-05-14T12:34:00;26.50;32.30
38325;DHT22;24126;52.672;13.622;2023-05-14T12:36:27;26.40;32.00
38325;DHT22;24126;52.672;13.622;2023-05-14T12:38:58;26.30;32.00
38325;DHT22;24126;52.672;13.622;2023-05-14T12:41:26;26.10;32.10
38325;DHT22;24126;52.672;13.622;2023-05-14T12:43:53;26.00;32.10
38325;DHT22;24126;52.672;13.622;2023-05-14T12:46:21;26.00;32.70
38325;DHT22;24126;52.672;13.622;2023-05-14T12:48:48;25.90;32.10
38325;DHT22;24126;52.672;13.622;2023-05-14T12:51:15;25.90;32.20
38325;DHT22;24126;52.672;13.622;2023-05-14T12:53:42;25.90;32.30
38325;DHT22;24126;52.672;13.622;2023-05-14T12:56:11;25.90;32.10
38325;DHT22;24126;52.672;13.622;2023-05-14T12:58:38;25.80;31.60
38325;DHT22;24126;52.672;13.622;2023-05-14T13:01:05;25.80;31.70
38325;DHT22;24126;52.672;13.622;2023-05-14T13:03:32;25.70;31.70
38325;DHT22;24126;52.672;13.622;2023-05-14T13:05:59;25.70;31.70
38325;DHT22;24126;52.672;13.622;2023-05-14T13:08:26;25.80;31.80
38325;DHT22;24126;52.672;13.622;2023-05-14T13:10:54;25.90;31.60
38325;DHT22;24126;52.672;13.622;2023-05-14T13:13:21;25.90;32.00
38325;DHT22;24126;52.672;13.622;2023-05-14T13:15:48;26.00;32.30
38325;DHT22;24126;52.672;13.622;2023-05-14T13:18:16;26.10;32.30
38325;DHT22;24126;52.672;13.622;2023-05-14T13:20:45;26.10;32.70
38325;DHT22;24126;52.672;13.622;2023-05-14T13:23:13;26.20;32.00
38325;DHT22;24126;52.672;13.622;2023-05-14T13:25:40;26.20;31.90
38325;DHT22;24126;52.672;13.622;2023-05-14T13:28:07;26.20;31.80
38325;DHT22;24126;52.672;13.622;2023-05-14T13:30:34;26.30;31.40
38325;DHT22;24126;52.672;13.622;2023-05-14T13:33:01;26.30;31.40
38325;DHT22;24126;52.672;13.622;2023-05-14T13:35:28;26.20;31.90
38325;DHT22;24126;52.672;13.622;2023-05-14T13:37:55;26.10;31.00
38325;DHT22;24126;52.672;13.622;2023-05-14T13:40:22;26.00;31.30
38325;DHT22;24126;52.672;13.622;2023-05-14T13:42:49;26.00;31.50
38325;DHT22;24126;52.672;13.622;2023-05-14T13:45:16;26.00;31.70
38325;DHT22;24126;52.672;13.622;2023-05-14T13:47:43;25.90;31.60
38325;DHT22;24126;52.672;13.622;2023-05-14T13:50:11;25.90;31.70
38325;DHT22;24126;52.672;13.622;2023-05-14T13:52:38;25.80;31.40
38325;DHT22;24126;52.672;13.622;2023-05-14T13:55:05;25.70;31.40
38325;DHT22;24126;52.672;13.622;2023-05-14T13:57:33;25.70;31.70
38325;DHT22;24126;52.672;13.622;2023-05-14T14:00:00;25.70;31.70
38325;DHT22;24126;52.672;13.622;2023-05-14T14:02:30;25.80;31.30
38325;DHT22;24126;52.672;13.622;2023-05-14T14:04:58;25.80;30.80
38325;DHT22;24126;52.672;13.622;2023-05-14T14:07:27;25.80;31.10
38325;DHT22;24126;52.672;13.622;2023-05-14T14:09:55;25.70;31.40
38325;DHT22;24126;52.672;13.622;2023-05-14T14:12:22;25.60;31.40
38325;DHT22;24126;52.672;13.622;2023-05-14T14:14:49;25.60;31.50
38325;DHT22;24126;52.672;13.622;2023-05-14T14:17:17;25.60;31.00
38325;DHT22;24126;52.672;13.622;2023-05-14T14:19:44;25.60;31.60
38325;DHT22;24126;52.672;13.622;2023-05-14T14:22:11;25.60;31.40
38325;DHT22;24126;52.672;13.622;2023-05-14T14:24:40;25.70;31.50
38325;DHT22;24126;52.672;13.622;2023-05-14T14:27:08;25.70;31.30
38325;DHT22;24126;52.672;13.622;2023-05-14T14:29:35;25.60;31.10
38325;DHT22;24126;52.672;13.622;2023-05-14T14:32:02;25.60;31.30
38325;DHT22;24126;52.672;13.622;2023-05-14T14:34:29;25.60;31.30
38325;DHT22;24126;52.672;13.622;2023-05-14T14:36:56;25.60;31.30
38325;DHT22;24126;52.672;13.622;2023-05-14T14:39:23;25.60;31.10
38325;DHT22;24126;52.672;13.622;2023-05-14T14:41:51;25.50;31.00
38325;DHT22;24126;52.672;13.622;2023-05-14T14:44:18;25.50;31.10
38325;DHT22;24126;52.672;13.622;2023-05-14T14:46:45;25.40;31.10
38325;DHT22;24126;52.672;13.622;2023-05-14T14:49:12;25.40;30.80
38325;DHT22;24126;52.672;13.622;2023-05-14T14:51:40;25.30;31.10
38325;DHT22;24126;52.672;13.622;2023-05-14T14:54:07;25.30;31.20
38325;DHT22;24126;52.672;13.622;2023-05-14T14:56:34;25.20;31.20
38325;DHT22;24126;52.672;13.622;2023-05-14T14:59:01;25.20;31.20
38325;DHT22;24126;52.672;13.622;2023-05-14T15:01:28;25.10;31.50
38325;DHT22;24126;52.672;13.622;2023-05-14T15:03:55;25.00;31.60
38325;DHT22;24126;52.672;13.622;2023-05-14T15:06:22;25.00;31.90
38325;DHT22;24126;52.672;13.622;2023-05-14T15:08:50;25.00;32.10
38325;DHT22;24126;52.672;13.622;2023-05-14T15:11:17;25.00;32.20
38325;DHT22;24126;52.672;13.622;2023-05-14T15:13:44;25.00;32.40
38325;DHT22;24126;52.672;13.622;2023-05-14T15:16:11;25.00;32.60
38325;DHT22;24126;52.672;13.622;2023-05-14T15:18:38;25.10;32.70
38325;DHT22;24126;52.672;13.622;2023-05-14T15:21:05;25.10;32.80
38325;DHT22;24126;52.672;13.622;2023-05-14T15:23:32;25.20;33.00
38325;DHT22;24126;52.672;13.622;2023-05-14T15:25:59;25.20;32.90